sensor_id;sensor_type;location;lat;lon;timestamp;pressure;altitude;pressure_sealevel;temperature;humidity
4410;BME280;2218;51.408;7.208;2023-05-20T00:02:14;100463.47;;;20.56;40.21
4410;BME280;2218;51.408;7.208;2023-05-20T00:04:41;100461.78;;;20.55;40.20
4410;BME280;2218;51.408;7.208;2023-05-20T00:07:08;100461.69;;;20.56;40.31
4410;BME280;2218;51.408;7.208;2023-05-20T00:09:37;100461.78;;;20.55;40.25
4410;BME280;2218;51.408;7.208;2023-05-20T00:12:05;100453.03;;;20.54;40.30
4410;BME280;2218;51.408;7.208;2023-05-20T00:14:32;100453.88;;;20.55;40.23
4410;BME280;2218;51.408;7.208;2023-05-20T00:17:01;100461.03;;;20.53;40.48
4410;BME280;2218;51.408;7.208;2023-05-20T00:19:27;100447.81;;;20.53;40.51
4410;BME280;2218;51.408;7.208;2023-05-20T00:21:54;100460.09;;;20.54;40.44
4410;BME280;2218;51.408;7.208;2023-05-20T00:24:23;100455.75;;;20.53;40.36
4410;BME280;2218;51.408;7.208;2023-05-20T00:26:50;100461.88;;;20.53;40.44
4410;BME280;2218;51.408;7.208;2023-05-20T00:29:17;100460.19;;;20.52;40.35
4410;BME280;2218;51.408;7.208;2023-05-20T00:31:44;100457.53;;;20.52;40.40
4410;BME280;2218;51.408;7.208;2023-05-20T00:34:12;100455.00;;;20.51;40.51
4410;BME280;2218;51.408;7.208;2023-05-20T00:36:39;100467.34;;;20.50;40.73
4410;BME280;2218;51.408;7.208;2023-05-20T00:39:07;100465.56;;;20.51;40.57
4410;BME280;2218;51.408;7.208;2023-05-20T00:41:34;100459.44;;;20.50;40.69
4410;BME280;2218;51.408;7.208;2023-05-20T00:44:01;100455.94;;;20.50;40.68
4410;BME280;2218;51.408;7.208;2023-05-20T00:46:28;100455.94;;;20.50;40.69
4410;BME280;2218;51.408;7.208;2023-05-20T00:48:56;100464.81;;;20.49;40.66
4410;BME280;2218;51.408;7.208;2023-05-20T00:51:25;100455.09;;;20.49;40.55
4410;BME280;2218;51.408;7.208;2023-05-20T00:53:54;100456.91;;;20.49;40.61
4410;BME280;2218;51.408;7.208;2023-05-20T00:56:22;100460.38;;;20.49;40.66
4410;BME280;2218;51.408;7.208;2023-05-20T00:58:49;100457.81;;;20.48;40.84
4410;BME280;2218;51.408;7.208;2023-05-20T01:01:16;100457.81;;;20.48;40.66
4410;BME280;2218;51.408;7.208;2023-05-20T01:03:43;100455.19;;;20.48;40.60
4410;BME280;2218;51.408;7.208;2023-05-20T01:06:10;100443.78;;;20.47;40.77
4410;BME280;2218;51.408;7.208;2023-05-20T01:08:39;100440.28;;;20.47;40.65
4410;BME280;2218;51.408;7.208;2023-05-20T01:11:10;100441.13;;;20.47;40.75
4410;BME280;2218;51.408;7.208;2023-05-20T01:13:45;100442.94;;;20.47;40.87
4410;BME280;2218;51.408;7.208;2023-05-20T01:16:16;100448.28;;;20.45;40.66
4410;BME280;2218;51.408;7.208;2023-05-20T01:18:45;100436.88;;;20.45;40.73
4410;BME280;2218;51.408;7.208;2023-05-20T01:21:16;100430.81;;;20.43;40.55
4410;BME280;2218;51.408;7.208;2023-05-20T01:23:44;100432.50;;;20.44;40.86
4410;BME280;2218;51.408;7.208;2023-05-20T01:26:11;100440.53;;;20.42;40.95
4410;BME280;2218;51.408;7.208;2023-05-20T01:28:41;100438.75;;;20.43;40.87
4410;BME280;2218;51.408;7.208;2023-05-20T01:31:14;100442.22;;;20.43;40.92
4410;BME280;2218;51.408;7.208;2023-05-20T01:33:49;100432.72;;;20.40;41.03
4410;BME280;2218;51.408;7.208;2023-05-20T01:36:20;100435.25;;;20.42;40.84
4410;BME280;2218;51.408;7.208;2023-05-20T01:38:51;100433.56;;;20.41;40.79
4410;BME280;2218;51.408;7.208;2023-05-20T01:41:19;100430.81;;;20.43;41.10
4410;BME280;2218;51.408;7.208;2023-05-20T01:43:48;100423.00;;;20.41;40.85
4410;BME280;2218;51.408;7.208;2023-05-20T01:46:15;100423.84;;;20.42;40.94
4410;BME280;2218;51.408;7.208;2023-05-20T01:48:42;100416.03;;;20.40;40.99
4410;BME280;2218;51.408;7.208;2023-05-20T01:51:09;100411.59;;;20.40;41.00
4410;BME280;2218;51.408;7.208;2023-05-20T01:53:36;100410.75;;;20.40;40.96
4410;BME280;2218;51.408;7.208;2023-05-20T01:56:06;100414.34;;;20.39;41.04
4410;BME280;2218;51.408;7.208;2023-05-20T01:58:33;100418.75;;;20.38;41.04
4410;BME280;2218;51.408;7.208;2023-05-20T02:01:00;100417.84;;;20.39;40.88
4410;BME280;2218;51.408;7.208;2023-05-20T02:03:29;100420.47;;;20.39;41.04
4410;BME280;2218;51.408;7.208;2023-05-20T02:05:56;100415.28;;;20.38;40.90
4410;BME280;2218;51.408;7.208;2023-05-20T02:08:23;100414.44;;;20.37;41.00
4410;BME280;2218;51.408;7.208;2023-05-20T02:10:50;100409.16;;;20.37;40.90
4410;BME280;2218;51.408;7.208;2023-05-20T02:13:18;100417.06;;;20.37;41.08
4410;BME280;2218;51.408;7.208;2023-05-20T02:15:45;100408.31;;;20.37;41.24
4410;BME280;2218;51.408;7.208;2023-05-20T02:18:12;100410.22;;;20.35;40.98
4410;BME280;2218;51.408;7.208;2023-05-20T02:20:43;100414.53;;;20.36;41.07
4410;BME280;2218;51.408;7.208;2023-05-20T02:23:10;100422.34;;;20.37;41.06
4410;BME280;2218;51.408;7.208;2023-05-20T02:25:37;100418.03;;;20.36;41.06
4410;BME280;2218;51.408;7.208;2023-05-20T02:28:04;100418.13;;;20.35;41.11
4410;BME280;2218;51.408;7.208;2023-05-20T02:30:36;100420.84;;;20.33;40.92
4410;BME280;2218;51.408;7.208;2023-05-20T02:33:03;100423.47;;;20.33;41.08
4410;BME280;2218;51.408;7.208;2023-05-20T02:35:31;100426.13;;;20.33;41.13
4410;BME280;2218;51.408;7.208;2023-05-20T02:37:58;100427.00;;;20.34;41.26
4410;BME280;2218;51.408;7.208;2023-05-20T02:40:25;100428.75;;;20.33;40.99
4410;BME280;2218;51.408;7.208;2023-05-20T02:42:53;100427.06;;;20.32;41.26
4410;BME280;2218;51.408;7.208;2023-05-20T02:45:20;100428.00;;;20.31;41.15
4410;BME280;2218;51.408;7.208;2023-05-20T02:47:48;100432.44;;;20.31;41.13
4410;BME280;2218;51.408;7.208;2023-05-20T02:50:15;100428.00;;;20.31;41.00
4410;BME280;2218;51.408;7.208;2023-05-20T02:52:42;100433.41;;;20.30;41.29
4410;BME280;2218;51.408;7.208;2023-05-20T02:55:11;100432.56;;;20.29;41.08
4410;BME280;2218;51.408;7.208;2023-05-20T02:57:38;100422.91;;;20.28;41.31
4410;BME280;2218;51.408;7.208;2023-05-20T03:00:08;100420.28;;;20.28;41.20
4410;BME280;2218;51.408;7.208;2023-05-20T03:02:36;100422.06;;;20.28;41.20
4410;BME280;2218;51.408;7.208;2023-05-20T03:05:05;100419.53;;;20.26;41.29
4410;BME280;2218;51.408;7.208;2023-05-20T03:07:35;100416.91;;;20.26;41.33
4410;BME280;2218;51.408;7.208;2023-05-20T03:10:02;100415.22;;;20.25;41.42
4410;BME280;2218;51.408;7.208;2023-05-20T03:12:30;100413.31;;;20.27;41.32
4410;BME280;2218;51.408;7.208;2023-05-20T03:14:57;100415.94;;;20.27;41.29
4410;BME280;2218;51.408;7.208;2023-05-20T03:17:25;100408.97;;;20.26;41.28
4410;BME280;2218;51.408;7.208;2023-05-20T03:19:52;100412.56;;;20.25;41.27
4410;BME280;2218;51.408;7.208;2023-05-20T03:22:20;100408.13;;;20.26;41.43
4410;BME280;2218;51.408;7.208;2023-05-20T03:24:47;100410.88;;;20.24;41.18
4410;BME280;2218;51.408;7.208;2023-05-20T03:27:14;100409.94;;;20.25;41.22
4410;BME280;2218;51.408;7.208;2023-05-20T03:29:41;100410.88;;;20.24;41.22
4410;BME280;2218;51.408;7.208;2023-05-20T03:32:09;100410.88;;;20.24;41.22
4410;BME280;2218;51.408;7.208;2023-05-20T03:34:36;100406.53;;;20.23;41.44
4410;BME280;2218;51.408;7.208;2023-05-20T03:37:04;100404.72;;;20.24;41.47
4410;BME280;2218;51.408;7.208;2023-05-20T03:39:32;100401.25;;;20.23;41.38
4410;BME280;2218;51.408;7.208;2023-05-20T03:42:00;100406.53;;;20.23;41.34
4410;BME280;2218;51.408;7.208;2023-05-20T03:44:27;100408.31;;;20.23;41.40
4410;BME280;2218;51.408;7.208;2023-05-20T03:46:54;100403.03;;;20.23;41.44
4410;BME280;2218;51.408;7.208;2023-05-20T03:49:20;100404.72;;;20.24;41.34
4410;BME280;2218;51.408;7.208;2023-05-20T03:51:47;100403.88;;;20.23;41.47
4410;BME280;2218;51.408;7.208;2023-05-20T03:54:15;100410.88;;;20.24;41.53
4410;BME280;2218;51.408;7.208;2023-05-20T03:56:46;100407.28;;;20.25;41.47
4410;BME280;2218;51.408;7.208;2023-05-20T03:59:14;100400.31;;;20.24;41.50
4410;BME280;2218;51.408;7.208;2023-05-20T04:01:41;100400.31;;;20.24;41.27
4410;BME280;2218;51.408;7.208;2023-05-20T04:04:07;100393.25;;;20.25;41.45
4410;BME280;2218;51.408;7.208;2023-05-20T04:06:35;100392.28;;;20.26;41.43
4410;BME280;2218;51.408;7.208;2023-05-20T04:09:02;100393.25;;;20.25;41.37
4410;BME280;2218;51.408;7.208;2023-05-20T04:11:29;100395.03;;;20.24;41.32
4410;BME280;2218;51.408;7.208;2023-05-20T04:13:58;100393.16;;;20.26;41.49
4410;BME280;2218;51.408;7.208;2023-05-20T04:16:25;100399.38;;;20.25;41.35
4410;BME280;2218;51.408;7.208;2023-05-20T04:18:52;100404.66;;;20.25;41.39
4410;BME280;2218;51.408;7.208;2023-05-20T04:21:19;100408.03;;;20.27;41.39
4410;BME280;2218;51.408;7.208;2023-05-20T04:23:46;100402.75;;;20.27;41.29
4410;BME280;2218;51.408;7.208;2023-05-20T04:26:13;100410.59;;;20.29;41.46
4410;BME280;2218;51.408;7.208;2023-05-20T04:28:40;100407.06;;;20.28;41.31
4410;BME280;2218;51.408;7.208;2023-05-20T04:31:09;100409.66;;;20.30;41.31
4410;BME280;2218;51.408;7.208;2023-05-20T04:33:37;100404.38;;;20.30;41.27
4410;BME280;2218;51.408;7.208;2023-05-20T04:36:08;100402.69;;;20.29;41.43
4410;BME280;2218;51.408;7.208;2023-05-20T04:38:36;100403.41;;;20.31;41.47
4410;BME280;2218;51.408;7.208;2023-05-20T04:41:04;100404.25;;;20.31;41.33
4410;BME280;2218;51.408;7.208;2023-05-20T04:43:32;100407.75;;;20.32;41.34
4410;BME280;2218;51.408;7.208;2023-05-20T04:45:59;100401.63;;;20.31;41.42
4410;BME280;2218;51.408;7.208;2023-05-20T04:48:33;100411.22;;;20.32;41.33
4410;BME280;2218;51.408;7.208;2023-05-20T04:51:00;100410.38;;;20.32;41.52
4410;BME280;2218;51.408;7.208;2023-05-20T04:53:27;100407.63;;;20.33;41.35
4410;BME280;2218;51.408;7.208;2023-05-20T04:55:55;100405.00;;;20.33;41.34
4410;BME280;2218;51.408;7.208;2023-05-20T04:58:24;100412.00;;;20.34;41.39
4410;BME280;2218;51.408;7.208;2023-05-20T05:00:52;100406.72;;;20.34;41.40
4410;BME280;2218;51.408;7.208;2023-05-20T05:03:18;100405.78;;;20.35;41.41
4410;BME280;2218;51.408;7.208;2023-05-20T05:05:48;100404.63;;;20.39;41.33
4410;BME280;2218;51.408;7.208;2023-05-20T05:08:15;100400.69;;;20.47;41.19
4410;BME280;2218;51.408;7.208;2023-05-20T05:10:47;100408.22;;;20.53;41.08
4410;BME280;2218;51.408;7.208;2023-05-20T05:13:14;100417.44;;;20.60;41.07
4410;BME280;2218;51.408;7.208;2023-05-20T05:15:41;100411.78;;;20.66;40.88
4410;BME280;2218;51.408;7.208;2023-05-20T05:18:08;100410.53;;;20.72;40.81
4410;BME280;2218;51.408;7.208;2023-05-20T05:20:36;100404.00;;;20.77;40.80
4410;BME280;2218;51.408;7.208;2023-05-20T05:23:04;100405.50;;;20.81;40.72
4410;BME280;2218;51.408;7.208;2023-05-20T05:25:32;100411.34;;;20.86;40.70
4410;BME280;2218;51.408;7.208;2023-05-20T05:27:59;100403.22;;;20.89;40.69
4410;BME280;2218;51.408;7.208;2023-05-20T05:30:26;100406.41;;;20.95;40.46
4410;BME280;2218;51.408;7.208;2023-05-20T05:32:54;100406.19;;;20.98;40.50
4410;BME280;2218;51.408;7.208;2023-05-20T05:35:21;100412.03;;;21.03;40.21
4410;BME280;2218;51.408;7.208;2023-05-20T05:37:48;100404.75;;;21.06;40.30
4410;BME280;2218;51.408;7.208;2023-05-20T05:40:17;100402.75;;;21.10;40.56
4410;BME280;2218;51.408;7.208;2023-05-20T05:42:45;100400.41;;;21.05;40.25
4410;BME280;2218;51.408;7.208;2023-05-20T05:45:13;100398.81;;;21.03;40.60
4410;BME280;2218;51.408;7.208;2023-05-20T05:47:41;100398.19;;;20.99;40.50
4410;BME280;2218;51.408;7.208;2023-05-20T05:50:09;100393.75;;;21.00;40.78
4410;BME280;2218;51.408;7.208;2023-05-20T05:52:37;100397.97;;;21.02;40.32
4410;BME280;2218;51.408;7.208;2023-05-20T05:55:08;100397.56;;;21.08;40.64
4410;BME280;2218;51.408;7.208;2023-05-20T05:57:37;100397.06;;;21.16;40.67
4410;BME280;2218;51.408;7.208;2023-05-20T06:00:06;100384.38;;;21.21;40.21
4410;BME280;2218;51.408;7.208;2023-05-20T06:02:43;100386.84;;;21.24;40.53
4410;BME280;2218;51.408;7.208;2023-05-20T06:05:12;100380.47;;;21.27;40.61
4410;BME280;2218;51.408;7.208;2023-05-20T06:07:39;100380.38;;;21.28;40.40
4410;BME280;2218;51.408;7.208;2023-05-20T06:10:08;100380.28;;;21.30;40.36
4410;BME280;2218;51.408;7.208;2023-05-20T06:12:36;100377.44;;;21.33;40.47
4410;BME280;2218;51.408;7.208;2023-05-20T06:15:04;100385.06;;;21.37;40.41
4410;BME280;2218;51.408;7.208;2023-05-20T06:17:32;100378.63;;;21.41;40.73
4410;BME280;2218;51.408;7.208;2023-05-20T06:19:59;100386.44;;;21.43;40.39
4410;BME280;2218;51.408;7.208;2023-05-20T06:22:26;100378.50;;;21.43;40.59
4410;BME280;2218;51.408;7.208;2023-05-20T06:24:54;100377.47;;;21.46;40.58
4410;BME280;2218;51.408;7.208;2023-05-20T06:27:25;100378.19;;;21.48;40.60
4410;BME280;2218;51.408;7.208;2023-05-20T06:29:54;100375.56;;;21.48;40.61
4410;BME280;2218;51.408;7.208;2023-05-20T06:32:22;100374.63;;;21.49;40.32
4410;BME280;2218;51.408;7.208;2023-05-20T06:34:49;100374.63;;;21.49;40.64
4410;BME280;2218;51.408;7.208;2023-05-20T06:37:16;100371.22;;;21.47;40.42
4410;BME280;2218;51.408;7.208;2023-05-20T06:39:43;100382.75;;;21.46;40.52
4410;BME280;2218;51.408;7.208;2023-05-20T06:42:12;100380.22;;;21.44;40.39
4410;BME280;2218;51.408;7.208;2023-05-20T06:44:46;100383.91;;;21.41;40.86
4410;BME280;2218;51.408;7.208;2023-05-20T06:47:21;100376.94;;;21.40;40.72
4410;BME280;2218;51.408;7.208;2023-05-20T06:49:50;100385.00;;;21.39;40.64
4410;BME280;2218;51.408;7.208;2023-05-20T06:52:16;100381.59;;;21.37;40.99
4410;BME280;2218;51.408;7.208;2023-05-20T06:54:44;100372.16;;;21.33;40.24
4410;BME280;2218;51.408;7.208;2023-05-20T06:57:12;100377.56;;;21.31;40.72
4410;BME280;2218;51.408;7.208;2023-05-20T06:59:39;100376.72;;;21.31;40.66
4410;BME280;2218;51.408;7.208;2023-05-20T07:02:07;100374.16;;;21.29;40.45
4410;BME280;2218;51.408;7.208;2023-05-20T07:04:35;100370.75;;;21.27;40.72
4410;BME280;2218;51.408;7.208;2023-05-20T07:07:02;100362.94;;;21.26;40.82
4410;BME280;2218;51.408;7.208;2023-05-20T07:09:30;100361.25;;;21.25;40.78
4410;BME280;2218;51.408;7.208;2023-05-20T07:11:57;100369.25;;;21.23;41.34
4410;BME280;2218;51.408;7.208;2023-05-20T07:14:25;100371.16;;;21.21;41.26
4410;BME280;2218;51.408;7.208;2023-05-20T07:16:52;100372.22;;;21.19;41.10
4410;BME280;2218;51.408;7.208;2023-05-20T07:19:19;100367.78;;;21.19;41.24
4410;BME280;2218;51.408;7.208;2023-05-20T07:21:48;100369.66;;;21.17;41.42
4410;BME280;2218;51.408;7.208;2023-05-20T07:24:31;100362.69;;;21.16;41.45
4410;BME280;2218;51.408;7.208;2023-05-20T07:26:58;100361.84;;;21.15;41.36
4410;BME280;2218;51.408;7.208;2023-05-20T07:29:25;100358.38;;;21.15;41.32
4410;BME280;2218;51.408;7.208;2023-05-20T07:31:53;100354.97;;;21.13;41.40
4410;BME280;2218;51.408;7.208;2023-05-20T07:34:20;100358.47;;;21.13;41.44
4410;BME280;2218;51.408;7.208;2023-05-20T07:36:48;100344.38;;;21.13;41.38
4410;BME280;2218;51.408;7.208;2023-05-20T07:39:16;100339.22;;;21.11;41.58
4410;BME280;2218;51.408;7.208;2023-05-20T07:41:43;100338.47;;;21.09;41.48
4410;BME280;2218;51.408;7.208;2023-05-20T07:44:11;100338.38;;;21.11;41.55
4410;BME280;2218;51.408;7.208;2023-05-20T07:46:42;100345.56;;;21.09;41.28
4410;BME280;2218;51.408;7.208;2023-05-20T07:49:10;100338.56;;;21.08;41.43
4410;BME280;2218;51.408;7.208;2023-05-20T07:51:38;100343.00;;;21.07;41.39
4410;BME280;2218;51.408;7.208;2023-05-20T07:54:06;100345.66;;;21.07;41.40
4410;BME280;2218;51.408;7.208;2023-05-20T07:56:34;100342.16;;;21.07;41.49
4410;BME280;2218;51.408;7.208;2023-05-20T07:59:01;100347.44;;;21.07;41.82
4410;BME280;2218;51.408;7.208;2023-05-20T08:01:31;100342.16;;;21.07;41.61
4410;BME280;2218;51.408;7.208;2023-05-20T08:03:59;100344.81;;;21.07;41.68
4410;BME280;2218;51.408;7.208;2023-05-20T08:06:27;100335.19;;;21.06;41.82
4410;BME280;2218;51.408;7.208;2023-05-20T08:08:54;100344.91;;;21.05;41.71
4410;BME280;2218;51.408;7.208;2023-05-20T08:11:28;100344.06;;;21.05;41.76
4410;BME280;2218;51.408;7.208;2023-05-20T08:13:56;100341.31;;;21.06;41.71
4410;BME280;2218;51.408;7.208;2023-05-20T08:16:26;100345.03;;;21.04;41.84
4410;BME280;2218;51.408;7.208;2023-05-20T08:18:54;100342.38;;;21.04;42.03
4410;BME280;2218;51.408;7.208;2023-05-20T08:21:21;100340.66;;;21.03;41.77
4410;BME280;2218;51.408;7.208;2023-05-20T08:23:48;100335.38;;;21.03;42.10
4410;BME280;2218;51.408;7.208;2023-05-20T08:26:16;100338.97;;;21.02;41.83
4410;BME280;2218;51.408;7.208;2023-05-20T08:28:44;100336.44;;;21.00;41.99
4410;BME280;2218;51.408;7.208;2023-05-20T08:31:12;100337.28;;;21.01;42.16
4410;BME280;2218;51.408;7.208;2023-05-20T08:33:39;100335.59;;;21.00;42.10
4410;BME280;2218;51.408;7.208;2023-05-20T08:36:06;100334.75;;;20.99;41.93
4410;BME280;2218;51.408;7.208;2023-05-20T08:38:33;100333.69;;;21.02;42.24
4410;BME280;2218;51.408;7.208;2023-05-20T08:41:01;100336.56;;;20.99;42.04
4410;BME280;2218;51.408;7.208;2023-05-20T08:43:28;100327.75;;;20.98;42.19
4410;BME280;2218;51.408;7.208;2023-05-20T08:45:59;100322.47;;;20.98;41.88
4410;BME280;2218;51.408;7.208;2023-05-20T08:48:30;100318.06;;;20.99;42.22
4410;BME280;2218;51.408;7.208;2023-05-20T08:50:57;100318.91;;;20.99;42.32
4410;BME280;2218;51.408;7.208;2023-05-20T08:53:25;100323.34;;;20.99;42.19
4410;BME280;2218;51.408;7.208;2023-05-20T08:55:54;100318.06;;;20.99;42.05
4410;BME280;2218;51.408;7.208;2023-05-20T08:58:23;100314.66;;;20.97;42.15
4410;BME280;2218;51.408;7.208;2023-05-20T09:00:51;100319.94;;;20.97;42.31
4410;BME280;2218;51.408;7.208;2023-05-20T09:03:20;100325.22;;;20.97;42.30
4410;BME280;2218;51.408;7.208;2023-05-20T09:05:48;100316.56;;;20.95;42.27
4410;BME280;2218;51.408;7.208;2023-05-20T09:08:15;100327.13;;;20.95;42.48
4410;BME280;2218;51.408;7.208;2023-05-20T09:10:42;100331.59;;;20.94;42.32
4410;BME280;2218;51.408;7.208;2023-05-20T09:13:10;100328.94;;;20.94;42.25
4410;BME280;2218;51.408;7.208;2023-05-20T09:15:37;100331.59;;;20.94;42.30
4410;BME280;2218;51.408;7.208;2023-05-20T09:18:06;100336.03;;;20.94;42.32
4410;BME280;2218;51.408;7.208;2023-05-20T09:20:36;100331.66;;;20.92;42.54
4410;BME280;2218;51.408;7.208;2023-05-20T09:23:07;100334.31;;;20.92;42.28
4410;BME280;2218;51.408;7.208;2023-05-20T09:25:35;100330.81;;;20.92;42.48
4410;BME280;2218;51.408;7.208;2023-05-20T09:28:03;100339.59;;;20.92;42.54
4410;BME280;2218;51.408;7.208;2023-05-20T09:30:31;100340.44;;;20.93;42.54
4410;BME280;2218;51.408;7.208;2023-05-20T09:33:02;100341.38;;;20.92;42.61
4410;BME280;2218;51.408;7.208;2023-05-20T09:35:29;100337.06;;;20.91;42.63
4410;BME280;2218;51.408;7.208;2023-05-20T09:37:58;100337.06;;;20.91;42.73
4410;BME280;2218;51.408;7.208;2023-05-20T09:40:26;100342.34;;;20.91;42.74
4410;BME280;2218;51.408;7.208;2023-05-20T09:42:57;100339.81;;;20.89;42.57
4410;BME280;2218;51.408;7.208;2023-05-20T09:45:25;100333.56;;;20.90;42.66
4410;BME280;2218;51.408;7.208;2023-05-20T09:47:54;100338.84;;;20.90;42.82
4410;BME280;2218;51.408;7.208;2023-05-20T09:50:23;100338.00;;;20.90;42.51
4410;BME280;2218;51.408;7.208;2023-05-20T09:52:51;100333.56;;;20.90;42.53
4410;BME280;2218;51.408;7.208;2023-05-20T09:55:23;100323.97;;;20.89;42.66
4410;BME280;2218;51.408;7.208;2023-05-20T09:57:52;100324.91;;;20.88;43.21
4410;BME280;2218;51.408;7.208;2023-05-20T10:00:19;100329.25;;;20.89;42.85
4410;BME280;2218;51.408;7.208;2023-05-20T10:02:49;100322.28;;;20.88;42.65
4410;BME280;2218;51.408;7.208;2023-05-20T10:05:20;100320.56;;;20.87;42.49
4410;BME280;2218;51.408;7.208;2023-05-20T10:08:27;100317.91;;;20.87;42.58
4410;BME280;2218;51.408;7.208;2023-05-20T10:11:09;100312.63;;;20.87;42.74
4410;BME280;2218;51.408;7.208;2023-05-20T10:13:57;100319.72;;;20.87;42.93
4410;BME280;2218;51.408;7.208;2023-05-20T10:16:39;100304.69;;;20.87;42.61
4410;BME280;2218;51.408;7.208;2023-05-20T10:19:22;100303.84;;;20.87;42.88
4410;BME280;2218;51.408;7.208;2023-05-20T10:21:57;100297.72;;;20.86;42.82
4410;BME280;2218;51.408;7.208;2023-05-20T10:24:30;100300.25;;;20.88;42.72
4410;BME280;2218;51.408;7.208;2023-05-20T10:27:03;100301.97;;;20.89;42.70
4410;BME280;2218;51.408;7.208;2023-05-20T10:29:42;100307.25;;;20.89;42.75
4410;BME280;2218;51.408;7.208;2023-05-20T10:32:09;100299.41;;;20.87;42.95
4410;BME280;2218;51.408;7.208;2023-05-20T10:34:45;100295.84;;;20.88;42.85
4410;BME280;2218;51.408;7.208;2023-05-20T10:37:23;100304.63;;;20.89;43.02
4410;BME280;2218;51.408;7.208;2023-05-20T10:39:52;100302.81;;;20.89;43.11
4410;BME280;2218;51.408;7.208;2023-05-20T10:42:29;100300.19;;;20.89;42.81
4410;BME280;2218;51.408;7.208;2023-05-20T10:44:56;100297.53;;;20.89;42.89
4410;BME280;2218;51.408;7.208;2023-05-20T10:47:23;100293.22;;;20.88;42.90
4410;BME280;2218;51.408;7.208;2023-05-20T10:49:51;100284.31;;;20.89;43.02
4410;BME280;2218;51.408;7.208;2023-05-20T10:52:18;100281.69;;;20.89;42.96
4410;BME280;2218;51.408;7.208;2023-05-20T10:54:47;100287.69;;;20.91;43.05
4410;BME280;2218;51.408;7.208;2023-05-20T10:57:20;100280.72;;;20.90;43.14
4410;BME280;2218;51.408;7.208;2023-05-20T10:59:49;100278.09;;;20.90;43.08
4410;BME280;2218;51.408;7.208;2023-05-20T11:02:19;100281.56;;;20.91;43.03
4410;BME280;2218;51.408;7.208;2023-05-20T11:04:51;100277.97;;;20.92;43.25
4410;BME280;2218;51.408;7.208;2023-05-20T11:07:25;100277.13;;;20.91;42.98
4410;BME280;2218;51.408;7.208;2023-05-20T11:09:53;100274.38;;;20.93;42.92
4410;BME280;2218;51.408;7.208;2023-05-20T11:12:21;100277.88;;;20.94;43.16
4410;BME280;2218;51.408;7.208;2023-05-20T11:14:49;100269.00;;;20.95;43.11
4410;BME280;2218;51.408;7.208;2023-05-20T11:17:18;100263.72;;;20.95;43.06
4410;BME280;2218;51.408;7.208;2023-05-20T11:19:45;100265.41;;;20.96;43.19
4410;BME280;2218;51.408;7.208;2023-05-20T11:22:12;100267.09;;;20.97;43.23
4410;BME280;2218;51.408;7.208;2023-05-20T11:24:40;100256.53;;;20.97;43.10
4410;BME280;2218;51.408;7.208;2023-05-20T11:27:07;100258.22;;;20.98;43.01
4410;BME280;2218;51.408;7.208;2023-05-20T11:29:34;100261.69;;;20.98;42.98
4410;BME280;2218;51.408;7.208;2023-05-20T11:32:02;100252.94;;;20.98;43.08
4410;BME280;2218;51.408;7.208;2023-05-20T11:34:35;100249.34;;;20.99;43.45
4410;BME280;2218;51.408;7.208;2023-05-20T11:37:06;100247.63;;;20.98;43.24
4410;BME280;2218;51.408;7.208;2023-05-20T11:39:33;100242.34;;;20.98;43.49
4410;BME280;2218;51.408;7.208;2023-05-20T11:42:02;100238.78;;;20.99;43.43
4410;BME280;2218;51.408;7.208;2023-05-20T11:44:30;100244.91;;;20.99;43.42
4410;BME280;2218;51.408;7.208;2023-05-20T11:47:00;100238.78;;;20.99;43.33
4410;BME280;2218;51.408;7.208;2023-05-20T11:49:29;100233.50;;;20.99;43.40
4410;BME280;2218;51.408;7.208;2023-05-20T11:51:56;100229.06;;;20.99;43.45
4410;BME280;2218;51.408;7.208;2023-05-20T11:54:24;100226.50;;;20.98;43.62
4410;BME280;2218;51.408;7.208;2023-05-20T11:56:52;100217.66;;;20.99;43.36
4410;BME280;2218;51.408;7.208;2023-05-20T11:59:23;100210.66;;;20.98;43.46
4410;BME280;2218;51.408;7.208;2023-05-20T12:01:50;100204.44;;;20.99;43.65
4410;BME280;2218;51.408;7.208;2023-05-20T12:04:17;100200.06;;;20.98;43.48
4410;BME280;2218;51.408;7.208;2023-05-20T12:06:45;100195.63;;;20.98;43.45
4410;BME280;2218;51.408;7.208;2023-05-20T12:09:12;100209.72;;;20.99;43.65
4410;BME280;2218;51.408;7.208;2023-05-20T12:11:40;100200.91;;;20.98;43.46
4410;BME280;2218;51.408;7.208;2023-05-20T12:14:08;100207.91;;;20.99;43.80
4410;BME280;2218;51.408;7.208;2023-05-20T12:16:36;100201.78;;;20.99;43.60
4410;BME280;2218;51.408;7.208;2023-05-20T12:19:04;100196.50;;;20.99;43.61
4410;BME280;2218;51.408;7.208;2023-05-20T12:21:31;100197.34;;;20.99;43.71
4410;BME280;2218;51.408;7.208;2023-05-20T12:23:59;100199.88;;;21.01;43.87
4410;BME280;2218;51.408;7.208;2023-05-20T12:26:28;100192.91;;;21.00;43.70
4410;BME280;2218;51.408;7.208;2023-05-20T12:28:55;100182.34;;;21.00;43.69
4410;BME280;2218;51.408;7.208;2023-05-20T12:31:23;100183.19;;;21.00;43.63
4410;BME280;2218;51.408;7.208;2023-05-20T12:33:50;100192.91;;;21.00;43.67
4410;BME280;2218;51.408;7.208;2023-05-20T12:36:17;100193.88;;;20.99;43.60
4410;BME280;2218;51.408;7.208;2023-05-20T12:38:44;100189.50;;;20.98;43.70
4410;BME280;2218;51.408;7.208;2023-05-20T12:41:13;100198.19;;;21.00;43.77
4410;BME280;2218;51.408;7.208;2023-05-20T12:43:40;100196.50;;;20.99;43.63
4410;BME280;2218;51.408;7.208;2023-05-20T12:46:07;100194.72;;;20.99;43.47
4410;BME280;2218;51.408;7.208;2023-05-20T12:48:34;100193.88;;;20.99;43.77
4410;BME280;2218;51.408;7.208;2023-05-20T12:51:01;100185.94;;;20.99;43.72
4410;BME280;2218;51.408;7.208;2023-05-20T12:53:28;100178.94;;;20.98;43.77
4410;BME280;2218;51.408;7.208;2023-05-20T12:55:55;100186.78;;;20.99;43.92
4410;BME280;2218;51.408;7.208;2023-05-20T12:58:23;100191.22;;;20.99;43.83
4410;BME280;2218;51.408;7.208;2023-05-20T13:00:50;100185.06;;;20.98;43.92
4410;BME280;2218;51.408;7.208;2023-05-20T13:03:17;100187.63;;;21.00;43.72
4410;BME280;2218;51.408;7.208;2023-05-20T13:05:44;100186.88;;;20.98;43.59
4410;BME280;2218;51.408;7.208;2023-05-20T13:08:11;100178.94;;;20.98;43.73
4410;BME280;2218;51.408;7.208;2023-05-20T13:10:39;100178.94;;;20.98;43.80
4410;BME280;2218;51.408;7.208;2023-05-20T13:13:06;100174.41;;;21.00;43.67
4410;BME280;2218;51.408;7.208;2023-05-20T13:15:34;100175.38;;;20.99;43.84
4410;BME280;2218;51.408;7.208;2023-05-20T13:18:03;100166.50;;;21.00;43.84